sensor_id;sensor_type;location;lat;lon;timestamp;temperature;humidity
12015;DHT22;6066;48.138;16.402;2023-08-24T00:00:44;22.90;99.90
12015;DHT22;6066;48.138;16.402;2023-08-24T00:03:13;22.90;99.90
12015;DHT22;6066;48.138;16.402;2023-08-24T00:05:46;22.90;99.90
12015;DHT22;6066;48.138;16.402;2023-08-24T00:08:15;22.90;99.90
12015;DHT22;6066;48.138;16.402;2023-08-24T00:10:44;22.80;99.90
12015;DHT22;6066;48.138;16.402;2023-08-24T00:13:15;22.80;99.90
12015;DHT22;6066;48.138;16.402;2023-08-24T00:15:45;22.80;99.90
12015;DHT22;6066;48.138;16.402;2023-08-24T00:18:13;22.70;99.90
12015;DHT22;6066;48.138;16.402;2023-08-24T00:20:44;22.70;99.90
12015;DHT22;6066;48.138;16.402;2023-08-24T00:23:13;22.60;99.90
12015;DHT22;6066;48.138;16.402;2023-08-24T00:25:45;22.60;99.90
12015;DHT22;6066;48.138;16.402;2023-08-24T00:28:15;22.50;99.90
12015;DHT22;6066;48.138;16.402;2023-08-24T00:30:43;22.50;99.90
12015;DHT22;6066;48.138;16.402;2023-08-24T00:33:11;22.50;99.90
12015;DHT22;6066;48.138;16.402;2023-08-24T00:35:40;22.50;99.90
12015;DHT22;6066;48.138;16.402;2023-08-24T00:38:09;22.40;99.90
12015;DHT22;6066;48.138;16.402;2023-08-24T00:40:38;22.40;99.90
12015;DHT22;6066;48.138;16.402;2023-08-24T00:43:06;22.40;99.90
12015;DHT22;6066;48.138;16.402;2023-08-24T00:45:37;22.40;99.90
12015;DHT22;6066;48.138;16.402;2023-08-24T00:48:06;22.30;99.90
12015;DHT22;6066;48.138;16.402;2023-08-24T00:50:35;22.30;99.90
12015;DHT22;6066;48.138;16.402;2023-08-24T00:53:03;22.30;99.90
12015;DHT22;6066;48.138;16.402;2023-08-24T00:55:31;22.30;99.90
12015;DHT22;6066;48.138;16.402;2023-08-24T00:58:00;22.20;99.90
12015;DHT22;6066;48.138;16.402;2023-08-24T01:00:30;22.20;99.90
12015;DHT22;6066;48.138;16.402;2023-08-24T01:03:00;22.20;99.90
12015;DHT22;6066;48.138;16.402;2023-08-24T01:05:29;22.10;99.90
12015;DHT22;6066;48.138;16.402;2023-08-24T01:07:58;22.10;99.90
12015;DHT22;6066;48.138;16.402;2023-08-24T01:10:28;22.10;99.90
12015;DHT22;6066;48.138;16.402;2023-08-24T01:13:00;22.10;99.90
12015;DHT22;6066;48.138;16.402;2023-08-24T01:15:32;22.10;99.90
12015;DHT22;6066;48.138;16.402;2023-08-24T01:18:04;22.10;99.90
12015;DHT22;6066;48.138;16.402;2023-08-24T01:20:34;22.00;99.90
12015;DHT22;6066;48.138;16.402;2023-08-24T01:23:04;22.00;99.90
12015;DHT22;6066;48.138;16.402;2023-08-24T01:25:34;22.00;99.90
12015;DHT22;6066;48.138;16.402;2023-08-24T01:28:05;22.00;99.90
12015;DHT22;6066;48.138;16.402;2023-08-24T01:30:33;22.00;99.90
12015;DHT22;6066;48.138;16.402;2023-08-24T01:33:02;22.10;99.90
12015;DHT22;6066;48.138;16.402;2023-08-24T01:35:29;22.10;99.90
12015;DHT22;6066;48.138;16.402;2023-08-24T01:37:55;22.10;99.90
12015;DHT22;6066;48.138;16.402;2023-08-24T01:40:23;22.10;99.90
12015;DHT22;6066;48.138;16.402;2023-08-24T01:42:57;22.20;99.90
12015;DHT22;6066;48.138;16.402;2023-08-24T01:45:29;22.20;99.90
12015;DHT22;6066;48.138;16.402;2023-08-24T01:47:57;22.20;99.90
12015;DHT22;6066;48.138;16.402;2023-08-24T01:50:25;22.20;99.90
12015;DHT22;6066;48.138;16.402;2023-08-24T01:52:52;22.20;99.90
12015;DHT22;6066;48.138;16.402;2023-08-24T01:55:19;22.20;99.90
12015;DHT22;6066;48.138;16.402;2023-08-24T01:57:46;22.30;99.90
12015;DHT22;6066;48.138;16.402;2023-08-24T02:00:14;22.20;99.90
12015;DHT22;6066;48.138;16.402;2023-08-24T02:02:43;22.20;99.90
12015;DHT22;6066;48.138;16.402;2023-08-24T02:05:10;22.20;99.90
12015;DHT22;6066;48.138;16.402;2023-08-24T02:07:38;22.20;99.90
12015;DHT22;6066;48.138;16.402;2023-08-24T02:10:05;22.20;99.90
12015;DHT22;6066;48.138;16.402;2023-08-24T02:12:32;22.20;99.90
12015;DHT22;6066;48.138;16.402;2023-08-24T02:14:59;22.20;99.90
12015;DHT22;6066;48.138;16.402;2023-08-24T02:17:25;22.20;99.90
12015;DHT22;6066;48.138;16.402;2023-08-24T02:19:54;22.10;99.90
12015;DHT22;6066;48.138;16.402;2023-08-24T02:22:21;22.10;99.90
12015;DHT22;6066;48.138;16.402;2023-08-24T02:24:47;22.00;99.90
12015;DHT22;6066;48.138;16.402;2023-08-24T02:27:14;22.00;99.90
12015;DHT22;6066;48.138;16.402;2023-08-24T02:29:41;22.00;99.90
12015;DHT22;6066;48.138;16.402;2023-08-24T02:32:08;21.90;99.90
12015;DHT22;6066;48.138;16.402;2023-08-24T02:34:34;21.90;99.90
12015;DHT22;6066;48.138;16.402;2023-08-24T02:37:02;21.90;99.90
12015;DHT22;6066;48.138;16.402;2023-08-24T02:39:29;21.80;99.90
12015;DHT22;6066;48.138;16.402;2023-08-24T02:41:56;21.80;99.90
12015;DHT22;6066;48.138;16.402;2023-08-24T02:44:23;21.80;99.90
12015;DHT22;6066;48.138;16.402;2023-08-24T02:46:49;21.80;99.90
12015;DHT22;6066;48.138;16.402;2023-08-24T02:49:16;21.80;99.90
12015;DHT22;6066;48.138;16.402;2023-08-24T02:51:43;21.70;99.90
12015;DHT22;6066;48.138;16.402;2023-08-24T02:54:11;21.70;99.90
12015;DHT22;6066;48.138;16.402;2023-08-24T02:56:38;21.70;99.90
12015;DHT22;6066;48.138;16.402;2023-08-24T02:59:05;21.70;99.90
12015;DHT22;6066;48.138;16.402;2023-08-24T03:01:32;21.60;99.90
12015;DHT22;6066;48.138;16.402;2023-08-24T03:03:59;21.60;99.90
12015;DHT22;6066;48.138;16.402;2023-08-24T03:06:26;21.60;99.90
12015;DHT22;6066;48.138;16.402;2023-08-24T03:08:52;21.50;99.90
12015;DHT22;6066;48.138;16.402;2023-08-24T03:11:20;21.50;99.90
12015;DHT22;6066;48.138;16.402;2023-08-24T03:13:46;21.50;99.90
12015;DHT22;6066;48.138;16.402;2023-08-24T03:16:13;21.50;99.90
12015;DHT22;6066;48.138;16.402;2023-08-24T03:18:39;21.50;99.90
12015;DHT22;6066;48.138;16.402;2023-08-24T03:21:06;21.40;99.90
12015;DHT22;6066;48.138;16.402;2023-08-24T03:23:33;21.50;99.90
12015;DHT22;6066;48.138;16.402;2023-08-24T03:25:59;21.40;99.90
12015;DHT22;6066;48.138;16.402;2023-08-24T03:28:28;21.40;99.90
12015;DHT22;6066;48.138;16.402;2023-08-24T03:30:54;21.40;99.90
12015;DHT22;6066;48.138;16.402;2023-08-24T03:33:21;21.40;99.90
12015;DHT22;6066;48.138;16.402;2023-08-24T03:35:48;21.40;99.90
12015;DHT22;6066;48.138;16.402;2023-08-24T03:38:14;21.40;99.90
12015;DHT22;6066;48.138;16.402;2023-08-24T03:40:41;21.40;99.90
12015;DHT22;6066;48.138;16.402;2023-08-24T03:43:08;21.40;99.90
12015;DHT22;6066;48.138;16.402;2023-08-24T03:45:36;21.30;99.90
12015;DHT22;6066;48.138;16.402;2023-08-24T03:48:03;21.40;99.90
12015;DHT22;6066;48.138;16.402;2023-08-24T03:50:30;21.30;99.90
12015;DHT22;6066;48.138;16.402;2023-08-24T03:52:57;21.30;99.90
12015;DHT22;6066;48.138;16.402;2023-08-24T03:55:23;21.20;99.90
12015;DHT22;6066;48.138;16.402;2023-08-24T03:57:50;21.20;99.90
12015;DHT22;6066;48.138;16.402;2023-08-24T04:00:17;21.20;99.90
12015;DHT22;6066;48.138;16.402;2023-08-24T04:02:45;21.20;99.90
12015;DHT22;6066;48.138;16.402;2023-08-24T04:05:12;21.10;99.90
12015;DHT22;6066;48.138;16.402;2023-08-24T04:07:39;21.10;99.90
12015;DHT22;6066;48.138;16.402;2023-08-24T04:10:07;21.10;99.90
12015;DHT22;6066;48.138;16.402;2023-08-24T04:12:34;21.00;99.90
12015;DHT22;6066;48.138;16.402;2023-08-24T04:15:01;21.00;99.90
12015;DHT22;6066;48.138;16.402;2023-08-24T04:17:28;21.00;99.90
12015;DHT22;6066;48.138;16.402;2023-08-24T04:19:56;20.90;99.90
12015;DHT22;6066;48.138;16.402;2023-08-24T04:22:22;20.90;99.90
12015;DHT22;6066;48.138;16.402;2023-08-24T04:24:49;20.90;99.90
12015;DHT22;6066;48.138;16.402;2023-08-24T04:27:15;20.90;99.90
12015;DHT22;6066;48.138;16.402;2023-08-24T04:29:43;20.90;99.90
12015;DHT22;6066;48.138;16.402;2023-08-24T04:32:10;20.90;99.90
12015;DHT22;6066;48.138;16.402;2023-08-24T04:34:37;20.90;99.90
12015;DHT22;6066;48.138;16.402;2023-08-24T04:37:05;20.90;99.90
12015;DHT22;6066;48.138;16.402;2023-08-24T04:39:32;20.90;99.90
12015;DHT22;6066;48.138;16.402;2023-08-24T04:41:58;20.90;99.90
12015;DHT22;6066;48.138;16.402;2023-08-24T04:44:25;20.90;99.90
12015;DHT22;6066;48.138;16.402;2023-08-24T04:46:52;20.90;99.90
12015;DHT22;6066;48.138;16.402;2023-08-24T04:49:19;20.80;99.90
12015;DHT22;6066;48.138;16.402;2023-08-24T04:51:45;20.90;99.90
12015;DHT22;6066;48.138;16.402;2023-08-24T04:54:13;20.90;99.90
12015;DHT22;6066;48.138;16.402;2023-08-24T04:56:40;20.90;99.90
12015;DHT22;6066;48.138;16.402;2023-08-24T04:59:07;21.00;99.90
12015;DHT22;6066;48.138;16.402;2023-08-24T05:01:34;21.00;99.90
12015;DHT22;6066;48.138;16.402;2023-08-24T05:04:00;21.10;99.90
12015;DHT22;6066;48.138;16.402;2023-08-24T05:06:27;21.10;99.90
12015;DHT22;6066;48.138;16.402;2023-08-24T05:08:54;21.20;99.90
12015;DHT22;6066;48.138;16.402;2023-08-24T05:11:23;21.20;99.90
12015;DHT22;6066;48.138;16.402;2023-08-24T05:13:51;21.30;99.90
12015;DHT22;6066;48.138;16.402;2023-08-24T05:16:18;21.30;99.90
12015;DHT22;6066;48.138;16.402;2023-08-24T05:18:45;21.40;99.90
12015;DHT22;6066;48.138;16.402;2023-08-24T05:21:11;21.40;99.90
12015;DHT22;6066;48.138;16.402;2023-08-24T05:23:38;21.50;99.90
12015;DHT22;6066;48.138;16.402;2023-08-24T05:26:05;21.50;99.90
12015;DHT22;6066;48.138;16.402;2023-08-24T05:28:33;21.60;99.90
12015;DHT22;6066;48.138;16.402;2023-08-24T05:30:59;21.60;99.90
12015;DHT22;6066;48.138;16.402;2023-08-24T05:33:26;21.70;99.90
12015;DHT22;6066;48.138;16.402;2023-08-24T05:35:56;21.80;99.90
12015;DHT22;6066;48.138;16.402;2023-08-24T05:38:23;21.90;99.90
12015;DHT22;6066;48.138;16.402;2023-08-24T05:40:49;21.90;99.90
12015;DHT22;6066;48.138;16.402;2023-08-24T05:43:16;22.00;99.90
12015;DHT22;6066;48.138;16.402;2023-08-24T05:45:44;22.10;99.90
12015;DHT22;6066;48.138;16.402;2023-08-24T05:48:12;22.20;99.90
12015;DHT22;6066;48.138;16.402;2023-08-24T05:50:42;22.20;99.90
12015;DHT22;6066;48.138;16.402;2023-08-24T05:53:10;22.30;99.90
12015;DHT22;6066;48.138;16.402;2023-08-24T05:55:37;22.40;99.90
12015;DHT22;6066;48.138;16.402;2023-08-24T05:58:04;22.40;99.90
12015;DHT22;6066;48.138;16.402;2023-08-24T06:00:31;22.50;99.90
12015;DHT22;6066;48.138;16.402;2023-08-24T06:02:59;22.50;99.90
12015;DHT22;6066;48.138;16.402;2023-08-24T06:05:26;22.60;99.90
12015;DHT22;6066;48.138;16.402;2023-08-24T06:07:53;22.60;99.90
12015;DHT22;6066;48.138;16.402;2023-08-24T06:10:20;22.70;99.90
12015;DHT22;6066;48.138;16.402;2023-08-24T06:12:46;22.80;99.90
12015;DHT22;6066;48.138;16.402;2023-08-24T06:15:13;22.80;99.90
12015;DHT22;6066;48.138;16.402;2023-08-24T06:17:41;22.90;99.90
12015;DHT22;6066;48.138;16.402;2023-08-24T06:20:10;22.90;99.90
12015;DHT22;6066;48.138;16.402;2023-08-24T06:22:37;23.00;99.90
12015;DHT22;6066;48.138;16.402;2023-08-24T06:25:05;23.00;99.90
12015;DHT22;6066;48.138;16.402;2023-08-24T06:27:34;23.10;99.90
12015;DHT22;6066;48.138;16.402;2023-08-24T06:30:01;23.10;99.90
12015;DHT22;6066;48.138;16.402;2023-08-24T06:32:28;23.20;99.90
12015;DHT22;6066;48.138;16.402;2023-08-24T06:34:55;23.20;99.90
12015;DHT22;6066;48.138;16.402;2023-08-24T06:37:23;23.30;99.90
12015;DHT22;6066;48.138;16.402;2023-08-24T06:39:50;23.30;99.90
12015;DHT22;6066;48.138;16.402;2023-08-24T06:42:17;23.40;99.90
12015;DHT22;6066;48.138;16.402;2023-08-24T06:44:44;23.40;99.90
12015;DHT22;6066;48.138;16.402;2023-08-24T06:47:10;23.50;99.90
12015;DHT22;6066;48.138;16.402;2023-08-24T06:49:37;23.50;99.90
12015;DHT22;6066;48.138;16.402;2023-08-24T06:52:04;23.60;99.90
12015;DHT22;6066;48.138;16.402;2023-08-24T06:54:32;23.60;99.90
12015;DHT22;6066;48.138;16.402;2023-08-24T06:56:59;23.60;99.90
12015;DHT22;6066;48.138;16.402;2023-08-24T06:59:26;23.60;99.90
12015;DHT22;6066;48.138;16.402;2023-08-24T07:01:52;23.70;99.90
12015;DHT22;6066;48.138;16.402;2023-08-24T07:04:19;23.80;99.90
12015;DHT22;6066;48.138;16.402;2023-08-24T07:06:46;23.80;99.90
12015;DHT22;6066;48.138;16.402;2023-08-24T07:09:13;23.80;99.90
12015;DHT22;6066;48.138;16.402;2023-08-24T07:11:42;23.90;99.90
12015;DHT22;6066;48.138;16.402;2023-08-24T07:14:08;24.00;99.90
12015;DHT22;6066;48.138;16.402;2023-08-24T07:16:35;24.00;99.90
12015;DHT22;6066;48.138;16.402;2023-08-24T07:19:02;24.10;99.90
12015;DHT22;6066;48.138;16.402;2023-08-24T07:21:29;24.10;99.90
12015;DHT22;6066;48.138;16.402;2023-08-24T07:23:56;24.20;99.90
12015;DHT22;6066;48.138;16.402;2023-08-24T07:26:23;24.30;99.90
12015;DHT22;6066;48.138;16.402;2023-08-24T07:28:52;24.40;99.90
12015;DHT22;6066;48.138;16.402;2023-08-24T07:31:19;24.50;99.90
12015;DHT22;6066;48.138;16.402;2023-08-24T07:33:45;24.60;99.90
12015;DHT22;6066;48.138;16.402;2023-08-24T07:36:12;24.70;99.90
12015;DHT22;6066;48.138;16.402;2023-08-24T07:38:39;24.70;99.90
12015;DHT22;6066;48.138;16.402;2023-08-24T07:41:05;24.80;99.90
12015;DHT22;6066;48.138;16.402;2023-08-24T07:43:32;24.90;99.90
12015;DHT22;6066;48.138;16.402;2023-08-24T07:46:00;24.90;99.90
12015;DHT22;6066;48.138;16.402;2023-08-24T07:48:27;25.00;99.90
12015;DHT22;6066;48.138;16.402;2023-08-24T07:50:54;25.10;99.90
12015;DHT22;6066;48.138;16.402;2023-08-24T07:53:20;25.20;99.90
12015;DHT22;6066;48.138;16.402;2023-08-24T07:55:47;25.30;99.90
12015;DHT22;6066;48.138;16.402;2023-08-24T07:58:14;25.30;99.90
12015;DHT22;6066;48.138;16.402;2023-08-24T08:00:42;25.40;99.90
12015;DHT22;6066;48.138;16.402;2023-08-24T08:03:11;25.40;99.90
12015;DHT22;6066;48.138;16.402;2023-08-24T08:05:37;25.50;99.90
12015;DHT22;6066;48.138;16.402;2023-08-24T08:08:04;25.50;99.90
12015;DHT22;6066;48.138;16.402;2023-08-24T08:10:31;25.60;99.90
12015;DHT22;6066;48.138;16.402;2023-08-24T08:12:57;25.70;99.90
12015;DHT22;6066;48.138;16.402;2023-08-24T08:15:27;25.80;99.90
12015;DHT22;6066;48.138;16.402;2023-08-24T08:17:54;25.80;99.90
12015;DHT22;6066;48.138;16.402;2023-08-24T08:20:22;25.90;99.90
12015;DHT22;6066;48.138;16.402;2023-08-24T08:22:50;25.90;99.90
12015;DHT22;6066;48.138;16.402;2023-08-24T08:25:17;26.00;99.90
12015;DHT22;6066;48.138;16.402;2023-08-24T08:27:44;26.10;99.90
12015;DHT22;6066;48.138;16.402;2023-08-24T08:30:11;26.10;99.90
12015;DHT22;6066;48.138;16.402;2023-08-24T08:32:38;26.20;99.90
12015;DHT22;6066;48.138;16.402;2023-08-24T08:35:05;26.30;99.90
12015;DHT22;6066;48.138;16.402;2023-08-24T08:37:33;26.40;99.90
12015;DHT22;6066;48.138;16.402;2023-08-24T08:40:02;26.40;99.90
12015;DHT22;6066;48.138;16.402;2023-08-24T08:42:31;26.50;99.90
12015;DHT22;6066;48.138;16.402;2023-08-24T08:44:58;26.50;99.90
12015;DHT22;6066;48.138;16.402;2023-08-24T08:47:28;26.60;99.90
12015;DHT22;6066;48.138;16.402;2023-08-24T08:49:55;26.60;99.90
12015;DHT22;6066;48.138;16.402;2023-08-24T08:52:21;26.60;99.90
12015;DHT22;6066;48.138;16.402;2023-08-24T08:54:52;26.70;99.90
12015;DHT22;6066;48.138;16.402;2023-08-24T08:57:19;26.70;99.90
12015;DHT22;6066;48.138;16.402;2023-08-24T08:59:49;26.90;99.90
12015;DHT22;6066;48.138;16.402;2023-08-24T09:02:18;27.00;99.90
12015;DHT22;6066;48.138;16.402;2023-08-24T09:04:45;27.10;99.90
12015;DHT22;6066;48.138;16.402;2023-08-24T09:07:12;27.10;99.90
12015;DHT22;6066;48.138;16.402;2023-08-24T09:09:39;27.30;99.90
12015;DHT22;6066;48.138;16.402;2023-08-24T09:12:08;27.40;99.90
12015;DHT22;6066;48.138;16.402;2023-08-24T09:14:35;27.40;99.90
12015;DHT22;6066;48.138;16.402;2023-08-24T09:17:01;27.50;99.90
12015;DHT22;6066;48.138;16.402;2023-08-24T09:19:28;27.50;99.90
12015;DHT22;6066;48.138;16.402;2023-08-24T09:21:56;27.60;99.90
12015;DHT22;6066;48.138;16.402;2023-08-24T09:24:28;27.60;99.90
12015;DHT22;6066;48.138;16.402;2023-08-24T09:26:55;27.60;99.90
12015;DHT22;6066;48.138;16.402;2023-08-24T09:29:23;27.70;99.90
12015;DHT22;6066;48.138;16.402;2023-08-24T09:31:50;27.70;99.90
12015;DHT22;6066;48.138;16.402;2023-08-24T09:34:18;27.70;99.90
12015;DHT22;6066;48.138;16.402;2023-08-24T09:36:47;27.80;99.90
12015;DHT22;6066;48.138;16.402;2023-08-24T09:39:16;28.00;99.90
12015;DHT22;6066;48.138;16.402;2023-08-24T09:41:45;28.10;99.90
12015;DHT22;6066;48.138;16.402;2023-08-24T09:44:12;28.10;99.90
12015;DHT22;6066;48.138;16.402;2023-08-24T09:46:40;28.20;99.90
12015;DHT22;6066;48.138;16.402;2023-08-24T09:49:08;28.30;99.90
12015;DHT22;6066;48.138;16.402;2023-08-24T09:51:35;28.30;99.90
12015;DHT22;6066;48.138;16.402;2023-08-24T09:54:04;28.30;99.90
12015;DHT22;6066;48.138;16.402;2023-08-24T09:56:33;28.30;99.90
12015;DHT22;6066;48.138;16.402;2023-08-24T09:59:00;28.40;99.90
12015;DHT22;6066;48.138;16.402;2023-08-24T10:01:29;28.50;99.90
12015;DHT22;6066;48.138;16.402;2023-08-24T10:04:00;28.60;99.90
12015;DHT22;6066;48.138;16.402;2023-08-24T10:06:30;28.70;99.90
12015;DHT22;6066;48.138;16.402;2023-08-24T10:09:00;28.70;99.90
12015;DHT22;6066;48.138;16.402;2023-08-24T10:11:34;28.80;99.90
12015;DHT22;6066;48.138;16.402;2023-08-24T10:14:05;28.70;99.90
12015;DHT22;6066;48.138;16.402;2023-08-24T10:16:35;28.70;99.90
12015;DHT22;6066;48.138;16.402;2023-08-24T10:19:05;28.80;99.90
12015;DHT22;6066;48.138;16.402;2023-08-24T10:21:35;28.80;99.90
12015;DHT22;6066;48.138;16.402;2023-08-24T10:24:05;28.90;99.90
12015;DHT22;6066;48.138;16.402;2023-08-24T10:26:33;29.10;99.90
12015;DHT22;6066;48.138;16.402;2023-08-24T10:29:01;29.20;99.90
12015;DHT22;6066;48.138;16.402;2023-08-24T10:31:30;29.30;99.90
12015;DHT22;6066;48.138;16.402;2023-08-24T10:33:59;29.40;99.90
12015;DHT22;6066;48.138;16.402;2023-08-24T10:36:31;29.40;99.90
12015;DHT22;6066;48.138;16.402;2023-08-24T10:39:02;29.50;99.90
12015;DHT22;6066;48.138;16.402;2023-08-24T10:41:48;29.50;99.90
12015;DHT22;6066;48.138;16.402;2023-08-24T10:44:20;29.50;99.90
12015;DHT22;6066;48.138;16.402;2023-08-24T10:49:40;29.70;99.90
12015;DHT22;6066;48.138;16.402;2023-08-24T10:54:59;29.70;99.90
12015;DHT22;6066;48.138;16.402;2023-08-24T10:57:34;29.70;99.90
12015;DHT22;6066;48.138;16.402;2023-08-24T11:00:04;29.70;99.90
12015;DHT22;6066;48.138;16.402;2023-08-24T11:02:41;29.80;99.90
12015;DHT22;6066;48.138;16.402;2023-08-24T11:05:17;29.90;99.90
12015;DHT22;6066;48.138;16.402;2023-08-24T11:07:55;30.00;99.90
12015;DHT22;6066;48.138;16.402;2023-08-24T11:10:26;30.20;99.90
12015;DHT22;6066;48.138;16.402;2023-08-24T11:13:07;30.30;99.90
12015;DHT22;6066;48.138;16.402;2023-08-24T11:15:42;30.30;99.90
12015;DHT22;6066;48.138;16.402;2023-08-24T11:18:15;30.40;99.90
12015;DHT22;6066;48.138;16.402;2023-08-24T11:20:50;30.30;99.90
12015;DHT22;6066;48.138;16.402;2023-08-24T11:23:19;30.30;99.90
12015;DHT22;6066;48.138;16.402;2023-08-24T11:25:50;30.30;99.90
12015;DHT22;6066;48.138;16.402;2023-08-24T11:28:22;30.30;99.90
12015;DHT22;6066;48.138;16.402;2023-08-24T11:30:53;30.30;99.90
12015;DHT22;6066;48.138;16.402;2023-08-24T11:33:29;30.30;99.90
12015;DHT22;6066;48.138;16.402;2023-08-24T11:35:58;30.30;99.90
12015;DHT22;6066;48.138;16.402;2023-08-24T11:38:35;30.40;99.90
12015;DHT22;6066;48.138;16.402;2023-08-24T11:41:12;30.40;99.90
12015;DHT22;6066;48.138;16.402;2023-08-24T11:43:41;30.50;99.90
12015;DHT22;6066;48.138;16.402;2023-08-24T11:46:10;30.60;99.90
12015;DHT22;6066;48.138;16.402;2023-08-24T11:48:38;30.70;99.90
12015;DHT22;6066;48.138;16.402;2023-08-24T11:51:08;30.80;99.90
12015;DHT22;6066;48.138;16.402;2023-08-24T11:53:39;30.90;99.90
12015;DHT22;6066;48.138;16.402;2023-08-24T11:56:08;31.00;99.90
12015;DHT22;6066;48.138;16.402;2023-08-24T11:58:39;31.00;99.90
12015;DHT22;6066;48.138;16.402;2023-08-24T12:01:08;31.00;99.90
12015;DHT22;6066;48.138;16.402;2023-08-24T12:03:37;30.90;99.90
12015;DHT22;6066;48.138;16.402;2023-08-24T12:06:10;31.00;99.90
12015;DHT22;6066;48.138;16.402;2023-08-24T12:08:47;31.00;99.90
12015;DHT22;6066;48.138;16.402;2023-08-24T12:11:16;31.00;99.90
12015;DHT22;6066;48.138;16.402;2023-08-24T12:13:48;31.10;99.90
12015;DHT22;6066;48.138;16.402;2023-08-24T12:16:17;31.30;99.90
12015;DHT22;6066;48.138;16.402;2023-08-24T12:18:49;31.40;99.90
12015;DHT22;6066;48.138;16.402;2023-08-24T12:21:19;31.60;99.90
12015;DHT22;6066;48.138;16.402;2023-08-24T12:23:56;31.80;99.90
12015;DHT22;6066;48.138;16.402;2023-08-24T12:26:25;31.70;99.90
12015;DHT22;6066;48.138;16.402;2023-08-24T12:29:01;31.60;99.90
12015;DHT22;6066;48.138;16.402;2023-08-24T12:31:31;31.60;99.90
12015;DHT22;6066;48.138;16.402;2023-08-24T12:33:59;31.50;99.90
12015;DHT22;6066;48.138;16.402;2023-08-24T12:36:29;31.50;99.90
12015;DHT22;6066;48.138;16.402;2023-08-24T12:38:58;31.50;99.90
12015;DHT22;6066;48.138;16.402;2023-08-24T12:41:27;31.50;99.90
12015;DHT22;6066;48.138;16.402;2023-08-24T12:43:56;31.40;99.90
12015;DHT22;6066;48.138;16.402;2023-08-24T12:46:27;31.50;99.90
12015;DHT22;6066;48.138;16.402;2023-08-24T12:48:55;31.50;99.90
12015;DHT22;6066;48.138;16.402;2023-08-24T12:51:22;31.40;99.90
12015;DHT22;6066;48.138;16.402;2023-08-24T12:53:50;31.40;99.90
12015;DHT22;6066;48.138;16.402;2023-08-24T12:56:16;31.40;99.90
12015;DHT22;6066;48.138;16.402;2023-08-24T12:58:43;31.40;99.90
12015;DHT22;6066;48.138;16.402;2023-08-24T13:01:10;31.40;99.90
12015;DHT22;6066;48.138;16.402;2023-08-24T13:03:41;31.50;99.90
12015;DHT22;6066;48.138;16.402;2023-08-24T13:06:08;31.60;99.90
12015;DHT22;6066;48.138;16.402;2023-08-24T13:08:35;31.70;99.90
12015;DHT22;6066;48.138;16.402;2023-08-24T13:11:03;31.60;99.90
12015;DHT22;6066;48.138;16.402;2023-08-24T13:13:34;31.60;99.90
12015;DHT22;6066;48.138;16.402;2023-08-24T13:16:00;31.60;99.90
12015;DHT22;6066;48.138;16.402;2023-08-24T13:18:27;31.60;99.90
12015;DHT22;6066;48.138;16.402;2023-08-24T13:20:55;31.60;99.90
12015;DHT22;6066;48.138;16.402;2023-08-24T13:23:22;31.50;99.90
12015;DHT22;6066;48.138;16.402;2023-08-24T13:25:48;31.50;99.90
12015;DHT22;6066;48.138;16.402;2023-08-24T13:28:15;31.50;99.90
12015;DHT22;6066;48.138;16.402;2023-08-24T13:30:42;31.50;99.90
12015;DHT22;6066;48.138;16.402;2023-08-24T13:33:08;31.60;99.90
12015;DHT22;6066;48.138;16.402;2023-08-24T13:35:37;31.60;99.90
12015;DHT22;6066;48.138;16.402;2023-08-24T13:38:05;31.70;99.90
12015;DHT22;6066;48.138;16.402;2023-08-24T13:40:32;31.80;99.90
12015;DHT22;6066;48.138;16.402;2023-08-24T13:42:58;31.90;99.90
12015;DHT22;6066;48.138;16.402;2023-08-24T13:45:25;31.90;99.90
12015;DHT22;6066;48.138;16.402;2023-08-24T13:47:52;31.70;99.90
12015;DHT22;6066;48.138;16.402;2023-08-24T13:50:18;31.70;99.90
12015;DHT22;6066;48.138;16.402;2023-08-24T13:52:45;31.60;99.90
12015;DHT22;6066;48.138;16.402;2023-08-24T13:55:13;31.60;99.90
12015;DHT22;6066;48.138;16.402;2023-08-24T13:57:40;31.50;99.90
12015;DHT22;6066;48.138;16.402;2023-08-24T14:00:07;31.40;99.90
12015;DHT22;6066;48.138;16.402;2023-08-24T14:02:34;31.40;99.90
12015;DHT22;6066;48.138;16.402;2023-08-24T14:05:01;31.20;99.90
12015;DHT22;6066;48.138;16.402;2023-08-24T14:07:29;31.10;99.90
12015;DHT22;6066;48.138;16.402;2023-08-24T14:09:56;31.20;99.90
12015;DHT22;6066;48.138;16.402;2023-08-24T14:12:24;31.30;99.90
12015;DHT22;6066;48.138;16.402;2023-08-24T14:14:51;31.50;99.90
12015;DHT22;6066;48.138;16.402;2023-08-24T14:17:18;31.60;99.90
12015;DHT22;6066;48.138;16.402;2023-08-24T14:19:45;31.70;99.90
12015;DHT22;6066;48.138;16.402;2023-08-24T14:22:11;31.70;99.90
12015;DHT22;6066;48.138;16.402;2023-08-24T14:24:38;31.70;99.90
12015;DHT22;6066;48.138;16.402;2023-08-24T14:27:05;31.70;99.90
12015;DHT22;6066;48.138;16.402;2023-08-24T14:29:33;31.70;99.90
12015;DHT22;6066;48.138;16.402;2023-08-24T14:31:59;31.70;99.90
12015;DHT22;6066;48.138;16.402;2023-08-24T14:34:26;31.70;99.90
12015;DHT22;6066;48.138;16.402;2023-08-24T14:36:53;31.70;99.90
12015;DHT22;6066;48.138;16.402;2023-08-24T14:39:19;31.60;99.90
12015;DHT22;6066;48.138;16.402;2023-08-24T14:41:46;31.50;99.90
12015;DHT22;6066;48.138;16.402;2023-08-24T14:44:13;31.30;99.90
12015;DHT22;6066;48.138;16.402;2023-08-24T14:46:41;31.20;99.90
12015;DHT22;6066;48.138;16.402;2023-08-24T14:49:08;31.10;99.90
12015;DHT22;6066;48.138;16.402;2023-08-24T14:51:34;31.00;99.90
12015;DHT22;6066;48.138;16.402;2023-08-24T14:54:01;30.90;99.90
12015;DHT22;6066;48.138;16.402;2023-08-24T14:56:28;30.90;99.90
12015;DHT22;6066;48.138;16.402;2023-08-24T14:58:54;30.90;99.90
12015;DHT22;6066;48.138;16.402;2023-08-24T15:01:21;30.90;99.90
12015;DHT22;6066;48.138;16.402;2023-08-24T15:03:49;30.90;99.90
12015;DHT22;6066;48.138;16.402;2023-08-24T15:06:16;30.90;99.90
12015;DHT22;6066;48.138;16.402;2023-08-24T15:08:43;31.00;99.90
12015;DHT22;6066;48.138;16.402;2023-08-24T15:11:10;31.00;99.90
12015;DHT22;6066;48.138;16.402;2023-08-24T15:13:37;31.00;99.90
12015;DHT22;6066;48.138;16.402;2023-08-24T15:16:04;30.90;99.90
12015;DHT22;6066;48.138;16.402;2023-08-24T15:18:31;30.90;99.90
12015;DHT22;6066;48.138;16.402;2023-08-24T15:20:59;30.90;99.90
12015;DHT22;6066;48.138;16.402;2023-08-24T15:23:26;30.90;99.90
12015;DHT22;6066;48.138;16.402;2023-08-24T15:25:54;30.80;99.90
12015;DHT22;6066;48.138;16.402;2023-08-24T15:28:21;30.80;99.90
12015;DHT22;6066;48.138;16.402;2023-08-24T15:30:48;30.70;99.90
12015;DHT22;6066;48.138;16.402;2023-08-24T15:33:14;30.70;99.90
12015;DHT22;6066;48.138;16.402;2023-08-24T15:35:41;30.60;99.90
12015;DHT22;6066;48.138;16.402;2023-08-24T15:38:09;30.50;99.90
12015;DHT22;6066;48.138;16.402;2023-08-24T15:40:37;30.40;99.90